Time;durP1;ratioP1;P1;durP2;ratioP2;P2;SDS_P1;SDS_P2;PMS_P1;PMS_P2;Temp;Humidity;BMP_temperature;BMP_pressure;BME280_temperature;BME280_humidity;BME280_pressure;Samples;Min_cycle;Max_cycle;Signal;HPM_P1;HPM_P2
2023/03/18 00:01:14;;;;;;;6.90;4.80;;;11.20;67.70;;;;;;5083935;28;20395;-71
2023/03/18 00:03:40;;;;;;;9.15;5.15;;;11.20;67.90;;;;;;5092514;28;20028;-72
2023/03/18 00:06:10;;;;;;;8.98;5.70;;;11.20;67.70;;;;;;5098796;28;20120;-71
2023/03/18 00:08:36;;;;;;;7.75;5.00;;;11.20;67.60;;;;;;5096321;28;20032;-73
2023/03/18 00:11:04;;;;;;;14.02;6.03;;;11.20;67.70;;;;;;5089785;28;20032;-72
2023/03/18 00:13:32;;;;;;;8.18;5.10;;;11.20;67.80;;;;;;5093581;28;20040;-72
2023/03/18 00:15:58;;;;;;;7.78;5.55;;;11.20;67.90;;;;;;5100148;28;20067;-72
2023/03/18 00:18:24;;;;;;;13.90;7.10;;;11.20;67.60;;;;;;5094948;28;20475;-70
2023/03/18 00:20:50;;;;;;;11.85;7.90;;;11.20;67.60;;;;;;5090257;28;20383;-71
2023/03/18 00:23:16;;;;;;;12.23;7.38;;;11.20;67.60;;;;;;5087538;28;20124;-70
2023/03/18 00:25:45;;;;;;;11.23;6.35;;;11.20;67.70;;;;;;5099200;28;20445;-70
2023/03/18 00:28:10;;;;;;;8.27;5.47;;;11.20;67.40;;;;;;5093282;28;20496;-70
2023/03/18 00:30:40;;;;;;;8.30;5.38;;;11.20;67.40;;;;;;5097085;28;20059;-70
2023/03/18 00:33:07;;;;;;;10.43;5.57;;;11.20;67.60;;;;;;5094316;28;20032;-70
2023/03/18 00:35:33;;;;;;;8.93;4.72;;;11.20;67.50;;;;;;5090381;28;20043;-71
2023/03/18 00:37:59;;;;;;;12.15;6.57;;;11.20;67.50;;;;;;5092331;28;20517;-70
2023/03/18 00:40:41;;;;;;;9.38;5.65;;;11.20;67.30;;;;;;5093798;28;20388;-71
2023/03/18 00:43:11;;;;;;;7.38;4.82;;;11.20;67.50;;;;;;5084973;28;20034;-72
2023/03/18 00:45:39;;;;;;;9.50;4.63;;;11.20;67.90;;;;;;5099608;28;20387;-71
2023/03/18 00:48:06;;;;;;;8.52;5.43;;;11.20;67.90;;;;;;5091143;28;20024;-71
2023/03/18 00:50:33;;;;;;;10.95;6.00;;;11.10;67.50;;;;;;5095062;28;20032;-71
2023/03/18 00:52:59;;;;;;;14.27;6.53;;;11.10;67.50;;;;;;5090074;28;20510;-71
2023/03/18 00:55:26;;;;;;;8.43;4.75;;;11.10;67.80;;;;;;5095828;28;20407;-71
2023/03/18 00:57:52;;;;;;;9.20;4.80;;;11.10;67.70;;;;;;5085017;28;20036;-71
2023/03/18 01:00:18;;;;;;;11.10;5.00;;;11.10;67.50;;;;;;5086813;28;20032;-72
2023/03/18 01:02:44;;;;;;;7.13;4.63;;;11.10;67.40;;;;;;5097199;28;20035;-71
2023/03/18 01:05:12;;;;;;;7.20;5.22;;;11.10;67.70;;;;;;5108508;28;20015;-70
2023/03/18 01:07:38;;;;;;;9.38;5.35;;;11.10;67.70;;;;;;5089538;28;20115;-70
2023/03/18 01:10:05;;;;;;;6.97;4.82;;;11.00;68.10;;;;;;5093657;28;20116;-71
2023/03/18 01:12:32;;;;;;;9.30;4.72;;;11.00;67.70;;;;;;5094665;28;20030;-71
2023/03/18 01:14:58;;;;;;;9.40;5.38;;;11.00;67.90;;;;;;5090306;28;20047;-70
2023/03/18 01:17:24;;;;;;;8.32;4.75;;;11.00;67.80;;;;;;5077944;28;20056;-70
2023/03/18 01:19:50;;;;;;;6.78;4.78;;;11.00;68.00;;;;;;5100848;28;20368;-70
2023/03/18 01:22:16;;;;;;;7.80;5.15;;;11.00;67.90;;;;;;5089026;28;20070;-71
2023/03/18 01:24:42;;;;;;;8.43;5.20;;;10.90;67.90;;;;;;5095422;28;20506;-70
2023/03/18 01:27:07;;;;;;;8.52;5.15;;;10.90;67.80;;;;;;5089598;28;20028;-71
2023/03/18 01:29:34;;;;;;;8.73;5.40;;;10.90;67.80;;;;;;5089794;28;20034;-71
2023/03/18 01:32:01;;;;;;;7.38;4.40;;;10.90;67.70;;;;;;5084961;28;20438;-71
2023/03/18 01:34:27;;;;;;;7.30;4.80;;;10.80;67.60;;;;;;5096635;28;20028;-71
2023/03/18 01:36:54;;;;;;;7.20;4.60;;;10.80;67.50;;;;;;5090588;28;20088;-71
2023/03/18 01:39:22;;;;;;;7.75;4.88;;;10.80;67.50;;;;;;5105623;28;20032;-71
2023/03/18 01:41:48;;;;;;;7.05;4.30;;;10.80;67.50;;;;;;5096711;28;20026;-71
2023/03/18 01:44:20;;;;;;;8.63;5.47;;;10.80;67.60;;;;;;5112590;28;20446;-71
2023/03/18 01:46:48;;;;;;;8.77;4.97;;;10.80;67.50;;;;;;5104694;28;20502;-71
2023/03/18 01:49:19;;;;;;;7.72;4.97;;;10.80;67.40;;;;;;5089695;28;20055;-70
2023/03/18 01:51:51;;;;;;;8.05;4.78;;;10.70;67.50;;;;;;5094274;28;20112;-70
2023/03/18 01:54:18;;;;;;;6.85;4.43;;;10.70;67.50;;;;;;5098158;28;20028;-70
2023/03/18 01:56:47;;;;;;;8.35;4.93;;;10.70;67.40;;;;;;5096443;28;20425;-70
2023/03/18 01:59:14;;;;;;;8.38;5.20;;;10.80;67.50;;;;;;5099952;28;20151;-70
2023/03/18 02:01:51;;;;;;;8.85;5.25;;;10.70;67.60;;;;;;5094668;28;20376;-70
2023/03/18 02:04:20;;;;;;;9.15;5.13;;;10.70;68.10;;;;;;5093742;28;20028;-70
2023/03/18 02:06:46;;;;;;;7.03;4.50;;;10.70;67.60;;;;;;5093218;28;20420;-71
2023/03/18 02:09:12;;;;;;;7.15;5.00;;;10.70;67.70;;;;;;5093993;28;20024;-71
2023/03/18 02:11:41;;;;;;;8.85;5.53;;;10.70;67.70;;;;;;5092790;28;20538;-71
2023/03/18 02:14:12;;;;;;;7.95;5.85;;;10.70;68.10;;;;;;5101966;28;20023;-71
2023/03/18 02:16:47;;;;;;;9.98;5.97;;;10.80;67.70;;;;;;5097730;28;20044;-71
2023/03/18 02:19:41;;;;;;;6.47;4.43;;;10.70;67.60;;;;;;5094239;28;20023;-71
2023/03/18 02:22:20;;;;;;;8.68;4.90;;;10.70;67.50;;;;;;5091117;28;20077;-71
2023/03/18 02:25:12;;;;;;;6.90;4.30;;;10.70;67.60;;;;;;5093929;28;20043;-71
2023/03/18 02:27:43;;;;;;;7.13;4.07;;;10.70;67.60;;;;;;5100625;28;20054;-71
2023/03/18 02:30:14;;;;;;;6.47;4.75;;;10.70;67.60;;;;;;5093007;28;20494;-71
2023/03/18 02:32:43;;;;;;;7.07;4.43;;;10.70;67.70;;;;;;5093721;28;20043;-71
2023/03/18 02:35:10;;;;;;;7.80;4.10;;;10.70;67.70;;;;;;5097356;28;20031;-70
2023/03/18 02:37:36;;;;;;;10.45;5.85;;;10.70;67.70;;;;;;5098571;28;20031;-70
2023/03/18 02:40:28;;;;;;;8.20;4.38;;;10.70;67.70;;;;;;5101080;28;20024;-70
2023/03/18 02:42:54;;;;;;;8.25;4.93;;;10.70;67.70;;;;;;5093526;28;20454;-70
2023/03/18 02:46:06;;;;;;;8.10;4.45;;;10.80;67.70;;;;;;5093662;28;20383;-70
2023/03/18 02:48:37;;;;;;;6.28;4.63;;;10.70;67.60;;;;;;5071179;28;20392;-70
2023/03/18 02:51:04;;;;;;;9.18;4.10;;;10.70;67.50;;;;;;5092247;28;20027;-70
2023/03/18 02:53:30;;;;;;;6.93;4.00;;;10.70;67.50;;;;;;5094825;28;20028;-70
2023/03/18 02:55:56;;;;;;;8.40;4.25;;;10.70;67.60;;;;;;5090757;28;20075;-70
2023/03/18 02:58:22;;;;;;;7.65;4.05;;;10.80;67.60;;;;;;5108764;28;20047;-71
2023/03/18 03:00:47;;;;;;;9.80;4.57;;;10.70;67.50;;;;;;5092633;28;20032;-71
2023/03/18 03:03:13;;;;;;;7.55;4.40;;;10.70;67.60;;;;;;5096447;28;20024;-71
2023/03/18 03:05:39;;;;;;;7.85;3.70;;;10.70;68.10;;;;;;5094305;28;20093;-71
2023/03/18 03:08:05;;;;;;;6.32;4.40;;;10.70;67.60;;;;;;5097870;28;20122;-71
2023/03/18 03:10:30;;;;;;;11.00;4.40;;;10.70;67.60;;;;;;5097212;28;20027;-75
2023/03/18 03:12:56;;;;;;;7.95;4.43;;;10.70;67.70;;;;;;5092607;28;20480;-72
2023/03/18 03:15:22;;;;;;;6.72;4.25;;;10.70;67.70;;;;;;5093208;28;20024;-73
2023/03/18 03:17:48;;;;;;;5.72;4.07;;;10.70;67.70;;;;;;5081239;28;20107;-72
2023/03/18 03:20:14;;;;;;;7.32;4.95;;;10.70;67.70;;;;;;5104519;28;20131;-72
2023/03/18 03:22:41;;;;;;;8.32;4.50;;;10.60;67.70;;;;;;5100953;28;20056;-72
2023/03/18 03:25:09;;;;;;;9.27;4.65;;;10.60;67.70;;;;;;5088496;28;20098;-72
2023/03/18 03:27:35;;;;;;;12.60;4.55;;;10.60;67.70;;;;;;5089341;28;20024;-72
2023/03/18 03:30:01;;;;;;;12.85;5.20;;;10.70;67.80;;;;;;5107269;28;20035;-73
2023/03/18 03:32:27;;;;;;;9.73;4.93;;;10.60;67.80;;;;;;5102811;28;20027;-73
2023/03/18 03:34:53;;;;;;;8.98;4.70;;;10.60;67.80;;;;;;5101375;28;20050;-73
2023/03/18 03:37:19;;;;;;;8.40;4.22;;;10.60;67.80;;;;;;5098537;28;20019;-73
2023/03/18 03:39:44;;;;;;;11.35;4.57;;;10.70;67.80;;;;;;5103233;28;20493;-72
2023/03/18 03:42:10;;;;;;;8.65;5.30;;;10.60;67.80;;;;;;5099161;28;20410;-72
2023/03/18 03:44:36;;;;;;;5.72;4.28;;;10.70;67.90;;;;;;5106632;28;20497;-71
2023/03/18 03:47:02;;;;;;;7.25;4.65;;;10.70;68.00;;;;;;5088227;28;20052;-72
2023/03/18 03:49:28;;;;;;;6.60;4.57;;;10.60;68.00;;;;;;5104231;28;20382;-72
2023/03/18 03:51:54;;;;;;;6.70;4.18;;;10.60;68.00;;;;;;5099619;28;20027;-72
2023/03/18 03:54:19;;;;;;;9.90;4.45;;;10.60;68.10;;;;;;5097073;28;20428;-72
2023/03/18 03:56:46;;;;;;;8.50;5.35;;;10.60;68.10;;;;;;5095531;28;20530;-71
2023/03/18 03:59:12;;;;;;;8.23;4.60;;;10.60;68.10;;;;;;5075818;28;20516;-71
2023/03/18 04:01:38;;;;;;;9.07;4.63;;;10.60;68.20;;;;;;5087911;28;20028;-71
2023/03/18 04:04:04;;;;;;;7.60;4.63;;;10.60;68.20;;;;;;5096596;28;20035;-71
2023/03/18 04:06:29;;;;;;;8.25;4.72;;;10.60;68.20;;;;;;5103214;28;20059;-72
2023/03/18 04:08:55;;;;;;;6.97;4.78;;;10.50;68.00;;;;;;5106087;28;20065;-72
2023/03/18 04:11:21;;;;;;;8.68;4.82;;;10.50;68.10;;;;;;5090481;28;20383;-72
2023/03/18 04:13:47;;;;;;;7.45;4.82;;;10.60;68.20;;;;;;5105340;28;20034;-71
2023/03/18 04:16:13;;;;;;;6.75;4.38;;;10.50;68.20;;;;;;5093140;28;20175;-72
2023/03/18 04:18:39;;;;;;;8.23;4.95;;;10.60;68.20;;;;;;5105647;28;20120;-71
2023/03/18 04:21:05;;;;;;;9.25;5.80;;;10.60;68.30;;;;;;5087252;28;20035;-71
2023/03/18 04:23:32;;;;;;;7.72;4.75;;;10.60;68.20;;;;;;5093088;28;20024;-71
2023/03/18 04:25:58;;;;;;;8.82;5.25;;;10.50;68.30;;;;;;5090488;28;20543;-71
2023/03/18 04:28:23;;;;;;;7.82;4.80;;;10.50;68.30;;;;;;5104896;28;20491;-71
2023/03/18 04:30:49;;;;;;;7.43;4.53;;;10.50;68.30;;;;;;5092571;28;20024;-71
2023/03/18 04:33:15;;;;;;;7.75;5.10;;;10.50;68.30;;;;;;5090535;28;20036;-71
2023/03/18 04:35:42;;;;;;;11.25;5.63;;;10.50;68.40;;;;;;5092506;28;20067;-73
2023/03/18 04:38:08;;;;;;;8.48;4.95;;;10.50;68.40;;;;;;5090266;28;20122;-72
2023/03/18 04:40:34;;;;;;;7.50;4.65;;;10.50;68.40;;;;;;5091286;28;20039;-72
2023/03/18 04:43:00;;;;;;;9.07;5.28;;;10.40;68.40;;;;;;5084310;28;20028;-72
2023/03/18 04:45:26;;;;;;;8.45;5.20;;;10.40;68.40;;;;;;5100368;28;20028;-72
2023/03/18 04:47:52;;;;;;;9.20;4.50;;;10.40;68.50;;;;;;5104135;28;20028;-72
2023/03/18 04:50:18;;;;;;;9.88;5.22;;;10.40;68.60;;;;;;5090085;28;20035;-71
2023/03/18 04:52:44;;;;;;;9.52;4.90;;;10.40;68.50;;;;;;5093580;28;20035;-71
2023/03/18 04:55:11;;;;;;;6.60;4.70;;;10.30;68.50;;;;;;5087666;28;20488;-72
2023/03/18 04:57:37;;;;;;;7.90;4.57;;;10.40;68.60;;;;;;5088424;28;20047;-72
2023/03/18 05:00:05;;;;;;;6.90;4.97;;;10.40;68.70;;;;;;5092120;28;20430;-72
2023/03/18 05:02:31;;;;;;;14.38;4.95;;;10.30;68.70;;;;;;5080270;28;20371;-72
2023/03/18 05:04:56;;;;;;;10.85;5.03;;;10.30;68.80;;;;;;5108189;28;20027;-72
2023/03/18 05:07:22;;;;;;;10.32;5.90;;;10.30;68.80;;;;;;5092886;28;20031;-72
2023/03/18 05:09:48;;;;;;;7.45;5.18;;;10.30;68.80;;;;;;5100778;28;20027;-72
2023/03/18 05:12:14;;;;;;;8.18;5.65;;;10.30;68.90;;;;;;5082980;28;20498;-71
2023/03/18 05:14:41;;;;;;;9.00;5.45;;;10.20;68.90;;;;;;5089297;28;20044;-72
2023/03/18 05:17:14;;;;;;;6.82;4.65;;;10.20;69.00;;;;;;5093253;28;20028;-71
2023/03/18 05:19:47;;;;;;;6.72;4.93;;;10.20;69.00;;;;;;5090700;28;20413;-72
2023/03/18 05:22:15;;;;;;;11.48;4.72;;;10.20;69.10;;;;;;5096622;28;20032;-71
2023/03/18 05:24:47;;;;;;;10.98;5.70;;;10.20;69.10;;;;;;5096926;28;20040;-71
2023/03/18 05:27:16;;;;;;;7.18;5.25;;;10.10;69.10;;;;;;5084927;28;20039;-70
2023/03/18 05:29:42;;;;;;;8.63;5.25;;;10.10;69.20;;;;;;5087241;28;20447;-73
2023/03/18 05:32:08;;;;;;;7.50;5.05;;;10.10;69.30;;;;;;5105446;28;20063;-72
2023/03/18 05:34:39;;;;;;;9.38;4.78;;;10.10;69.30;;;;;;5098784;28;20068;-72
2023/03/18 05:37:06;;;;;;;9.82;5.47;;;10.10;69.40;;;;;;5087482;28;20059;-72
2023/03/18 05:39:32;;;;;;;10.90;5.30;;;10.10;69.50;;;;;;5087149;28;20031;-72
2023/03/18 05:41:59;;;;;;;8.30;4.93;;;10.10;69.50;;;;;;5094811;28;20036;-72
2023/03/18 05:44:25;;;;;;;8.10;5.28;;;10.00;69.60;;;;;;5095648;28;20483;-72
2023/03/18 05:46:51;;;;;;;8.52;4.57;;;10.10;69.70;;;;;;5089396;28;20483;-72
2023/03/18 05:49:18;;;;;;;9.48;5.47;;;10.10;69.90;;;;;;5085294;28;20480;-73
2023/03/18 05:51:45;;;;;;;9.55;5.70;;;10.00;69.90;;;;;;5101509;28;20052;-72
2023/03/18 05:54:11;;;;;;;11.02;5.00;;;10.00;70.00;;;;;;5103547;28;20384;-72
2023/03/18 05:56:37;;;;;;;9.15;4.90;;;10.10;70.20;;;;;;5094330;28;20554;-72
2023/03/18 05:59:04;;;;;;;7.70;5.22;;;10.00;70.20;;;;;;5087329;28;20044;-72
2023/03/18 06:01:32;;;;;;;9.55;5.65;;;10.00;70.30;;;;;;5086432;28;20034;-72
2023/03/18 06:03:58;;;;;;;9.05;4.72;;;10.00;70.30;;;;;;5100039;28;20524;-70
2023/03/18 06:06:24;;;;;;;7.35;4.90;;;10.10;70.40;;;;;;5101952;28;20031;-74
2023/03/18 06:08:51;;;;;;;7.82;4.95;;;10.00;70.30;;;;;;5083727;28;20483;-73
2023/03/18 06:11:17;;;;;;;9.18;5.00;;;10.00;70.50;;;;;;5091306;28;20038;-72
2023/03/18 06:13:43;;;;;;;8.32;4.95;;;10.00;70.50;;;;;;5088930;28;20107;-70
2023/03/18 06:16:10;;;;;;;7.15;4.38;;;10.00;70.50;;;;;;5105044;28;20059;-69
2023/03/18 06:18:36;;;;;;;8.45;5.45;;;10.00;70.50;;;;;;5107724;28;20512;-71
2023/03/18 06:21:02;;;;;;;9.50;5.80;;;10.10;70.50;;;;;;5092618;28;20399;-71
2023/03/18 06:23:27;;;;;;;11.45;5.43;;;10.10;70.50;;;;;;5082547;28;20031;-70
2023/03/18 06:25:53;;;;;;;9.55;4.85;;;10.10;70.60;;;;;;5091646;28;20537;-69
2023/03/18 06:28:19;;;;;;;6.75;5.05;;;10.10;70.60;;;;;;5095751;28;20058;-69
2023/03/18 06:30:45;;;;;;;9.10;5.05;;;10.10;70.70;;;;;;5105750;28;20118;-69
2023/03/18 06:33:11;;;;;;;7.70;4.95;;;10.20;71.00;;;;;;5101085;28;20034;-69
2023/03/18 06:35:37;;;;;;;10.75;5.30;;;10.10;70.90;;;;;;5112369;28;20043;-69
2023/03/18 06:38:03;;;;;;;8.70;5.65;;;10.10;71.00;;;;;;5110055;27;20051;-69
2023/03/18 06:40:28;;;;;;;6.60;4.82;;;10.10;71.00;;;;;;5100703;28;20060;-69
2023/03/18 06:42:54;;;;;;;9.30;4.95;;;10.10;71.00;;;;;;5104704;28;20030;-69
2023/03/18 06:45:21;;;;;;;9.10;5.07;;;10.10;71.00;;;;;;5108557;28;20396;-69
2023/03/18 06:47:48;;;;;;;10.05;5.82;;;10.10;71.00;;;;;;5105408;28;20551;-69
2023/03/18 06:50:15;;;;;;;8.85;4.93;;;10.20;71.10;;;;;;5109258;28;20503;-69
2023/03/18 06:52:41;;;;;;;9.40;5.78;;;10.20;71.10;;;;;;5101180;28;20027;-69
2023/03/18 06:55:08;;;;;;;8.35;5.15;;;10.20;71.10;;;;;;5092302;28;20054;-69
2023/03/18 06:57:34;;;;;;;7.90;5.10;;;10.20;71.80;;;;;;5109200;28;20486;-69
2023/03/18 07:00:00;;;;;;;10.20;5.50;;;10.20;71.50;;;;;;5098941;28;20043;-69
2023/03/18 07:02:26;;;;;;;7.57;5.13;;;10.20;71.90;;;;;;5100978;28;20024;-70
2023/03/18 07:04:52;;;;;;;10.43;5.93;;;10.20;71.60;;;;;;5106874;28;20080;-70
2023/03/18 07:07:18;;;;;;;9.52;5.40;;;10.30;71.80;;;;;;5094673;28;20024;-70
2023/03/18 07:09:44;;;;;;;11.88;5.72;;;10.20;71.70;;;;;;5112031;28;20077;-70
2023/03/18 07:12:12;;;;;;;6.78;4.88;;;10.30;72.10;;;;;;5105502;28;20055;-70
2023/03/18 07:14:39;;;;;;;7.55;5.15;;;10.30;72.00;;;;;;5110839;28;20032;-70
2023/03/18 07:17:05;;;;;;;9.07;4.75;;;10.30;72.20;;;;;;5090478;28;20029;-69
2023/03/18 07:19:32;;;;;;;9.82;5.90;;;10.30;72.10;;;;;;5092007;28;20069;-70
2023/03/18 07:21:58;;;;;;;11.82;5.80;;;10.40;72.30;;;;;;5112694;28;20051;-70
2023/03/18 07:24:23;;;;;;;9.20;5.03;;;10.40;72.10;;;;;;5108133;28;20023;-69
2023/03/18 07:26:49;;;;;;;11.18;5.65;;;10.50;72.00;;;;;;5114207;28;20038;-69
2023/03/18 07:29:15;;;;;;;12.02;4.85;;;10.50;72.00;;;;;;5104933;28;20039;-69
2023/03/18 07:31:42;;;;;;;7.57;5.20;;;10.60;72.10;;;;;;5097998;28;20538;-69
2023/03/18 07:34:08;;;;;;;9.60;5.53;;;10.60;72.00;;;;;;5103837;28;20524;-69
2023/03/18 07:36:35;;;;;;;9.43;5.38;;;10.70;72.20;;;;;;5111574;28;20051;-70
2023/03/18 07:39:02;;;;;;;7.10;5.10;;;10.70;72.10;;;;;;5102328;28;20020;-71
2023/03/18 07:41:28;;;;;;;9.98;5.18;;;10.80;72.30;;;;;;5106737;28;20422;-70
2023/03/18 07:43:54;;;;;;;7.97;5.20;;;10.80;72.10;;;;;;5101282;28;20023;-70
2023/03/18 07:46:20;;;;;;;13.43;4.93;;;10.90;72.10;;;;;;5107453;28;20061;-72
2023/03/18 07:48:46;;;;;;;9.48;5.43;;;10.90;72.20;;;;;;5095641;28;20020;-70
2023/03/18 07:51:13;;;;;;;7.95;5.60;;;11.00;72.90;;;;;;5107018;28;20027;-70
2023/03/18 07:53:39;;;;;;;8.73;4.95;;;11.00;72.40;;;;;;5101426;28;20024;-71
2023/03/18 07:56:06;;;;;;;6.97;5.10;;;11.10;72.50;;;;;;5072074;28;20094;-70
2023/03/18 07:58:33;;;;;;;8.23;5.25;;;11.10;72.40;;;;;;5090436;28;20041;-72
2023/03/18 08:00:58;;;;;;;9.75;5.32;;;11.20;72.40;;;;;;5095837;28;20027;-70
2023/03/18 08:03:24;;;;;;;10.50;5.57;;;11.20;72.50;;;;;;5091985;28;20435;-71
2023/03/18 08:05:50;;;;;;;9.60;5.20;;;11.30;72.50;;;;;;5098662;28;20028;-71
2023/03/18 08:08:16;;;;;;;8.02;5.10;;;11.30;72.40;;;;;;5098212;28;20024;-71
2023/03/18 08:10:42;;;;;;;8.75;4.95;;;11.40;72.50;;;;;;5108568;28;20059;-72
2023/03/18 08:13:08;;;;;;;7.43;5.32;;;11.50;72.50;;;;;;5103348;28;20432;-70
2023/03/18 08:15:33;;;;;;;7.88;5.25;;;11.50;72.40;;;;;;5092304;28;20036;-71
2023/03/18 08:17:59;;;;;;;8.93;5.20;;;11.60;72.40;;;;;;5104499;28;20052;-70
2023/03/18 08:20:26;;;;;;;7.25;5.10;;;11.70;72.70;;;;;;5099504;28;20037;-70
2023/03/18 08:22:51;;;;;;;7.00;5.25;;;11.70;72.60;;;;;;5103819;28;20048;-70
2023/03/18 08:25:17;;;;;;;8.30;5.72;;;11.80;72.50;;;;;;5093183;28;20423;-70
2023/03/18 08:27:43;;;;;;;8.27;4.95;;;11.90;72.60;;;;;;5105751;28;20031;-71
2023/03/18 08:30:10;;;;;;;7.72;5.05;;;11.90;72.50;;;;;;5103141;28;20399;-70
2023/03/18 08:32:36;;;;;;;8.07;5.15;;;12.00;72.40;;;;;;5078651;28;20027;-71
2023/03/18 08:35:02;;;;;;;7.90;5.20;;;12.10;72.50;;;;;;5073591;28;20424;-70
2023/03/18 08:37:27;;;;;;;8.88;5.45;;;12.20;72.50;;;;;;5090866;28;20046;-71
2023/03/18 08:39:53;;;;;;;7.07;4.80;;;12.30;72.60;;;;;;5087397;28;20471;-70
2023/03/18 08:42:19;;;;;;;11.25;5.28;;;12.40;72.60;;;;;;5067895;28;20035;-71
2023/03/18 08:44:45;;;;;;;8.70;5.45;;;12.50;72.60;;;;;;5096124;28;20475;-70
2023/03/18 08:47:11;;;;;;;9.02;5.35;;;12.50;72.60;;;;;;5094215;28;20041;-71
2023/03/18 08:49:37;;;;;;;7.35;5.10;;;12.60;72.60;;;;;;5096449;28;20101;-71
2023/03/18 08:52:03;;;;;;;7.40;4.65;;;12.70;72.70;;;;;;5106134;28;20093;-71
2023/03/18 08:54:28;;;;;;;7.45;4.88;;;12.80;72.80;;;;;;5096546;28;20409;-71
2023/03/18 08:56:55;;;;;;;8.93;5.68;;;13.00;72.70;;;;;;5101243;28;20051;-71
2023/03/18 08:59:21;;;;;;;7.18;4.65;;;13.10;72.50;;;;;;5092550;28;20517;-71
2023/03/18 09:01:48;;;;;;;10.10;5.28;;;13.20;72.50;;;;;;5086281;28;20028;-71
2023/03/18 09:04:13;;;;;;;9.30;5.50;;;13.30;72.50;;;;;;5102951;28;20028;-71
2023/03/18 09:06:40;;;;;;;9.15;4.78;;;13.40;72.50;;;;;;5093186;28;20645;-70
2023/03/18 09:09:07;;;;;;;10.18;5.25;;;13.50;72.60;;;;;;5105141;28;20038;-72
2023/03/18 09:11:32;;;;;;;6.82;4.50;;;13.60;72.80;;;;;;5074123;28;20540;-72
2023/03/18 09:13:58;;;;;;;8.93;5.25;;;13.70;72.80;;;;;;5092540;28;20104;-72
2023/03/18 09:16:24;;;;;;;8.93;4.80;;;13.80;72.70;;;;;;5085917;28;20044;-71
2023/03/18 09:18:49;;;;;;;7.78;5.38;;;13.90;72.50;;;;;;5085227;28;20027;-71
2023/03/18 09:21:16;;;;;;;9.00;5.18;;;14.00;72.70;;;;;;5088552;28;20042;-71
2023/03/18 09:23:42;;;;;;;7.00;4.97;;;14.00;72.50;;;;;;5072460;28;20107;-70
2023/03/18 09:26:07;;;;;;;8.18;5.20;;;14.10;72.60;;;;;;5098114;28;20451;-70
2023/03/18 09:28:33;;;;;;;8.77;5.15;;;14.20;72.40;;;;;;5092461;28;20027;-71
2023/03/18 09:30:59;;;;;;;7.00;4.95;;;14.20;72.20;;;;;;5107119;28;20051;-71
2023/03/18 09:33:25;;;;;;;8.40;5.38;;;14.30;72.20;;;;;;5092060;28;20031;-71
2023/03/18 09:35:51;;;;;;;6.88;4.80;;;14.30;72.20;;;;;;5092528;28;20082;-70
2023/03/18 09:38:18;;;;;;;7.60;4.57;;;14.40;72.20;;;;;;5098113;28;20387;-71
2023/03/18 09:40:57;;;;;;;8.27;5.10;;;14.40;72.10;;;;;;5094143;28;20025;-70
2023/03/18 09:43:28;;;;;;;7.80;4.95;;;14.50;71.80;;;;;;5094249;28;20360;-70
2023/03/18 09:46:05;;;;;;;7.32;4.82;;;14.50;72.00;;;;;;5092650;28;20054;-71
2023/03/18 09:48:34;;;;;;;8.10;5.10;;;14.60;72.00;;;;;;5102365;28;20024;-71
2023/03/18 09:51:32;;;;;;;10.07;4.90;;;14.60;72.00;;;;;;5089860;28;20089;-70
2023/03/18 09:54:03;;;;;;;8.77;5.93;;;14.70;71.80;;;;;;5077044;28;20034;-71
2023/03/18 09:56:33;;;;;;;7.57;4.97;;;14.70;71.70;;;;;;5089821;28;20562;-68
2023/03/18 09:59:11;;;;;;;9.30;5.88;;;14.70;71.80;;;;;;5093316;28;20063;-69
2023/03/18 10:01:38;;;;;;;7.97;5.03;;;14.80;71.60;;;;;;5089287;28;20030;-70
2023/03/18 10:04:21;;;;;;;11.50;5.25;;;14.90;71.90;;;;;;5095350;28;20499;-70
2023/03/18 10:06:50;;;;;;;6.47;5.10;;;14.90;71.60;;;;;;5091659;28;20031;-69
2023/03/18 10:09:24;;;;;;;8.43;5.30;;;15.00;71.80;;;;;;5103241;28;20073;-69
2023/03/18 10:11:52;;;;;;;6.33;4.63;;;15.10;71.70;;;;;;5074580;28;20032;-69
2023/03/18 10:14:45;;;;;;;7.00;4.00;;;15.10;71.70;;;;;;5078436;28;20335;-69
2023/03/18 10:17:23;;;;;;;6.82;4.90;;;15.30;71.90;;;;;;5092332;28;20072;-72
2023/03/18 10:19:58;;;;;;;8.10;4.90;;;15.30;71.70;;;;;;5089191;28;20026;-70
2023/03/18 10:23:02;;;;;;;9.40;4.47;;;15.40;71.60;;;;;;5094273;28;20411;-68
2023/03/18 10:25:36;;;;;;;8.13;4.70;;;15.50;71.50;;;;;;5096636;28;20034;-67
2023/03/18 10:28:27;;;;;;;7.80;4.68;;;15.50;71.60;;;;;;5102016;28;20449;-69
2023/03/18 10:31:08;;;;;;;6.78;4.68;;;15.60;71.60;;;;;;5098677;28;20063;-69
2023/03/18 10:33:49;;;;;;;7.57;5.28;;;15.70;71.40;;;;;;5094949;28;20020;-68
2023/03/18 10:36:18;;;;;;;7.78;4.80;;;15.80;71.30;;;;;;5090070;28;20044;-69
2023/03/18 10:38:49;;;;;;;8.15;4.90;;;15.90;71.20;;;;;;5096402;28;20024;-69
2023/03/18 10:41:22;;;;;;;7.78;5.38;;;15.90;71.10;;;;;;5101364;28;20035;-68
2023/03/18 10:43:50;;;;;;;7.95;4.70;;;16.00;71.00;;;;;;5092710;28;20078;-70
2023/03/18 10:46:19;;;;;;;9.35;4.88;;;16.10;70.90;;;;;;5091460;28;20030;-69
2023/03/18 10:48:51;;;;;;;7.88;4.95;;;16.20;70.80;;;;;;5098545;28;20041;-68
2023/03/18 10:51:20;;;;;;;8.90;4.72;;;16.30;70.80;;;;;;5090276;28;20016;-70
2023/03/18 10:54:12;;;;;;;6.47;4.70;;;16.30;70.80;;;;;;5084587;28;20027;-70
2023/03/18 10:56:38;;;;;;;10.95;5.10;;;16.40;72.00;;;;;;5085240;28;20493;-70
2023/03/18 10:59:17;;;;;;;7.70;4.22;;;16.50;72.70;;;;;;5081131;28;20044;-70
2023/03/18 11:01:51;;;;;;;8.82;4.65;;;16.60;72.00;;;;;;5082229;28;20532;-68
2023/03/18 11:04:22;;;;;;;7.63;4.45;;;16.60;71.70;;;;;;5088543;28;20025;-69
2023/03/18 11:07:01;;;;;;;7.97;4.40;;;16.70;72.00;;;;;;5102870;28;20020;-69
2023/03/18 11:09:31;;;;;;;7.90;5.03;;;16.70;72.30;;;;;;5074711;28;20024;-68
2023/03/18 11:12:05;;;;;;;6.68;4.32;;;16.80;72.00;;;;;;5098746;28;20031;-71
2023/03/18 11:14:32;;;;;;;8.40;4.38;;;16.90;72.10;;;;;;5096297;28;20064;-71
2023/03/18 11:17:04;;;;;;;7.80;4.55;;;17.00;72.10;;;;;;5089261;28;20092;-71
2023/03/18 11:19:47;;;;;;;8.07;4.47;;;17.00;71.90;;;;;;5089359;28;20032;-70
2023/03/18 11:22:22;;;;;;;9.07;4.43;;;17.10;71.80;;;;;;5095197;28;20037;-69
2023/03/18 11:25:15;;;;;;;6.03;4.20;;;17.20;71.80;;;;;;5112226;28;20444;-70
2023/03/18 11:27:42;;;;;;;6.45;4.00;;;17.30;71.90;;;;;;5089400;28;20020;-70
2023/03/18 11:30:14;;;;;;;9.68;4.50;;;17.30;72.10;;;;;;5093978;28;20730;-70
2023/03/18 11:32:51;;;;;;;5.47;3.55;;;17.40;72.10;;;;;;5088431;28;20032;-69
2023/03/18 11:35:21;;;;;;;6.32;4.45;;;17.60;72.20;;;;;;5093972;28;20115;-69
2023/03/18 11:37:46;;;;;;;8.80;3.42;;;17.60;72.20;;;;;;5097519;28;20039;-69
2023/03/18 11:40:25;;;;;;;5.30;4.03;;;17.80;72.20;;;;;;5091005;28;20081;-68
2023/03/18 11:42:59;;;;;;;8.65;4.10;;;17.90;72.30;;;;;;5106316;28;20031;-69
2023/03/18 11:45:25;;;;;;;6.25;4.05;;;18.00;72.20;;;;;;5091544;28;20433;-68
2023/03/18 11:47:53;;;;;;;7.65;4.10;;;18.10;72.40;;;;;;5087588;28;20034;-68
2023/03/18 11:50:24;;;;;;;8.65;3.90;;;18.20;72.20;;;;;;5087530;28;20039;-68
2023/03/18 11:52:53;;;;;;;6.43;3.78;;;18.20;72.10;;;;;;5090864;28;20111;-68
2023/03/18 11:55:44;;;;;;;7.72;4.35;;;18.30;71.90;;;;;;5097664;28;20043;-68
2023/03/18 11:58:38;;;;;;;7.45;4.05;;;18.40;72.00;;;;;;5098888;28;20051;-68
2023/03/18 12:01:20;;;;;;;8.90;3.43;;;18.40;72.20;;;;;;5083623;28;20024;-68
2023/03/18 12:04:04;;;;;;;7.25;3.95;;;18.40;71.70;;;;;;5087512;28;20412;-68
2023/03/18 12:06:37;;;;;;;6.87;4.50;;;18.50;71.80;;;;;;5091302;28;20032;-68
2023/03/18 12:09:28;;;;;;;6.55;4.65;;;18.50;71.60;;;;;;5089339;28;20371;-68
2023/03/18 12:11:58;;;;;;;5.88;3.90;;;18.50;72.10;;;;;;5092509;28;20024;-68
2023/03/18 12:14:29;;;;;;;10.70;4.13;;;18.50;71.70;;;;;;5081772;28;20391;-68
2023/03/18 12:17:15;;;;;;;6.68;3.88;;;18.60;71.80;;;;;;5090062;28;20035;-68
2023/03/18 12:19:53;;;;;;;8.02;3.97;;;18.60;71.90;;;;;;5083075;28;20438;-68
2023/03/18 12:22:32;;;;;;;6.95;4.70;;;18.60;71.80;;;;;;5093448;28;20035;-68
2023/03/18 12:25:36;;;;;;;9.43;4.65;;;18.60;71.80;;;;;;5085585;28;20695;-68
2023/03/18 12:28:57;;;;;;;9.13;4.88;;;18.60;71.90;;;;;;5091793;28;20145;-66
2023/03/18 12:31:48;;;;;;;7.47;3.75;;;18.60;71.90;;;;;;5042647;28;20039;-68
2023/03/18 12:34:49;;;;;;;7.28;3.58;;;18.60;72.00;;;;;;5083832;28;20055;-67
2023/03/18 12:37:42;;;;;;;5.80;3.60;;;18.60;72.10;;;;;;5085476;28;20123;-69
2023/03/18 12:40:19;;;;;;;6.05;3.90;;;18.50;72.00;;;;;;5095010;28;20027;-67
2023/03/18 12:42:57;;;;;;;6.63;3.38;;;18.60;72.10;;;;;;5089753;28;20376;-68
2023/03/18 12:45:29;;;;;;;7.50;3.70;;;18.60;72.20;;;;;;5093423;28;20031;-68
2023/03/18 12:48:45;;;;;;;9.77;3.85;;;18.60;72.30;;;;;;5089905;28;20065;-67
2023/03/18 12:51:17;;;;;;;6.07;3.33;;;18.60;72.40;;;;;;5048520;28;20070;-67
2023/03/18 12:53:51;;;;;;;5.45;3.50;;;18.60;72.60;;;;;;5093973;28;20093;-67
2023/03/18 12:56:22;;;;;;;7.10;4.00;;;18.60;72.90;;;;;;5089518;28;20039;-67
2023/03/18 12:58:53;;;;;;;5.68;3.85;;;18.60;73.10;;;;;;5088828;28;20388;-67